パリ/シャルル・ド・ゴール の空港の天気 - METARとTAF

シャルル・ド・ゴール国際空港(パリ) ( LFPG / CDG ) - フランス Paris
飛行場実況気象(Metar)
観測時間03/22 19:00 CET (03/22 18:00 UTC)
風向・風速北 2m/s
視程10km以上
天気現象
なし
気温15℃
湿度41%
気圧1027hPa
METARLFPG 221800Z 01004KT CAVOK 15/02 Q1027 NOSIG
過去の天気等 Google飛行場航空写真 Wunderground天気予報

過去48時間のMETAR

飛行場予報(TAF)
発表時間: 3/22 18:00 CET (3/22 17:00 UTC)
予報対象時間: 22日19時 CET ~ 24日1時 CET
風向・風速西北西 2m/s
視程10km以上
なし
23日2時 CET ~ 23日11時 CET に一時的に
視程3000m
天気現象もや
23日4時 CET ~ 23日10時 CET に 確率 40% で一時的に
風向・風速不定 1m/s
視程400m
天気現象
23日9時 CET ~ 23日11時 CET に徐々に
風向・風速北北東 3m/s
全天の8割程度の雲 雲底高度 180m
23日12時 CET ~ 23日14時 CET に徐々に
全天の8割程度の雲 雲底高度 430m
23日16時 CET ~ 23日18時 CET に徐々に
全天の4割程度の雲 雲底高度 910m
24日0時 CET ~ 24日1時 CET に 確率 40% で一時的に
視程4000m
天気現象もや
TAF LFPG 221700Z 2218/2324 29003KT CAVOK TX15/2314Z TN05/2306Z
TEMPO 2301/2310 3000 BR
PROB40 TEMPO 2303/2309 VRB02KT 0400 FG VV///
BECMG 2308/2310 03005KT BKN006
BECMG 2311/2313 BKN014
BECMG 2315/2317 SCT030
PROB40 TEMPO 2323/2324 4000 BR